RYR12DE LIPY-EGSS
Flight info
| Callsign | RYR12DE |
|---|---|
| Flight time | 2h 8m |
| Altitude | 18000 |
| Route | LANLI L612 ARDAM DCT CHI/N0432F340 DCT LAPAB/N0450F380 DCT ROKIB DCT UNIMI DCT XEBIX DCT USUDO DCT LIRSU DCT KOZUF DCT IMPOH DCT SASKI L608 SUMUM Y6 TOSVA |
| Aircraft | B38M/M-SADE3FGIJ1LRWYZ/SB1 |
Departure
| Time | 2026-04-21 18:17 |
|---|---|
| Airport | Marche Airport (LIPY) |
Arrival
| Time | 2026-04-21 20:26 |
|---|---|
| Airport | London Stansted Airport (EGSS) |
| Time | Latitude | Longitude | Altitude | Speed | Heading |
|---|---|---|---|---|---|
| 2026-04-21 18:03 | 43.60792 | 13.35501 | 49 ft | 0 kts | 160° |
| 2026-04-21 18:15 | 43.60787 | 13.35498 | 51 ft | 1 kts | 215° |
| 2026-04-21 18:15 | 43.60789 | 13.35468 | 55 ft | 7 kts | 284° |
| 2026-04-21 18:15 | 43.60786 | 13.35389 | 53 ft | 9 kts | 237° |
| 2026-04-21 18:15 | 43.60736 | 13.35317 | 55 ft | 11 kts | 225° |
| 2026-04-21 18:16 | 43.60711 | 13.35249 | 55 ft | 8 kts | 289° |
| 2026-04-21 18:16 | 43.60754 | 13.35180 | 55 ft | 11 kts | 317° |
| 2026-04-21 18:16 | 43.60813 | 13.35123 | 56 ft | 8 kts | 2° |
| 2026-04-21 18:16 | 43.60835 | 13.35140 | 58 ft | 3 kts | 44° |
| 2026-04-21 18:17 | 43.60995 | 13.35359 | 58 ft | 73 kts | 45° |
| 2026-04-21 18:17 | 43.61537 | 13.36099 | 51 ft | 144 kts | 45° |
| 2026-04-21 18:17 | 43.62048 | 13.36797 | 242 ft | 162 kts | 45° |
| 2026-04-21 18:17 | 43.63161 | 13.38288 | 1296 ft | 170 kts | 44° |
| 2026-04-21 18:18 | 43.63732 | 13.39056 | 1750 ft | 180 kts | 45° |
| 2026-04-21 18:18 | 43.64668 | 13.40339 | 2327 ft | 200 kts | 46° |
| 2026-04-21 18:18 | 43.65697 | 13.41773 | 2947 ft | 218 kts | 46° |
| 2026-04-21 18:18 | 43.66809 | 13.43157 | 4107 ft | 211 kts | 35° |
| 2026-04-21 18:19 | 43.68184 | 13.43953 | 5083 ft | 220 kts | 11° |
| 2026-04-21 18:19 | 43.69722 | 13.43817 | 6073 ft | 223 kts | 347° |
| 2026-04-21 18:19 | 43.71178 | 13.43223 | 7178 ft | 219 kts | 342° |
| 2026-04-21 18:19 | 43.72673 | 13.42574 | 7934 ft | 227 kts | 344° |
| 2026-04-21 18:20 | 43.74188 | 13.42015 | 9005 ft | 221 kts | 346° |
| 2026-04-21 18:20 | 43.75719 | 13.41483 | 9837 ft | 230 kts | 343° |
| 2026-04-21 18:20 | 43.77269 | 13.40930 | 10738 ft | 230 kts | 344° |
| 2026-04-21 18:20 | 43.78837 | 13.40409 | 11549 ft | 235 kts | 345° |
| 2026-04-21 18:21 | 43.80415 | 13.39658 | 12094 ft | 247 kts | 321° |
| 2026-04-21 18:21 | 43.81611 | 13.37893 | 12658 ft | 260 kts | 308° |
| 2026-04-21 18:21 | 43.82900 | 13.35999 | 13113 ft | 281 kts | 312° |
| 2026-04-21 18:21 | 43.84315 | 13.34003 | 13608 ft | 298 kts | 312° |
| 2026-04-21 18:22 | 43.85801 | 13.31920 | 14204 ft | 310 kts | 312° |
| 2026-04-21 18:22 | 43.87320 | 13.29797 | 15055 ft | 310 kts | 312° |
| 2026-04-21 18:22 | 43.88845 | 13.27668 | 15907 ft | 312 kts | 311° |
| 2026-04-21 18:22 | 43.90377 | 13.25530 | 16752 ft | 314 kts | 311° |
| 2026-04-21 18:23 | 43.91921 | 13.23373 | 17578 ft | 316 kts | 311° |
| 2026-04-21 18:23 | 43.93471 | 13.21207 | 18378 ft | 317 kts | 311° |
| 2026-04-21 18:23 | 43.95033 | 13.19028 | 19069 ft | 319 kts | 312° |
| 2026-04-21 18:23 | 43.96850 | 13.17221 | 19804 ft | 325 kts | 326° |
| 2026-04-21 18:24 | 43.98804 | 13.15664 | 20494 ft | 325 kts | 324° |
| 2026-04-21 18:24 | 44.00740 | 13.14107 | 21167 ft | 326 kts | 324° |
| 2026-04-21 18:24 | 44.02733 | 13.12515 | 21867 ft | 326 kts | 324° |
| 2026-04-21 18:24 | 44.04701 | 13.10949 | 22577 ft | 327 kts | 324° |
| 2026-04-21 18:25 | 44.06675 | 13.09380 | 23268 ft | 328 kts | 324° |
| 2026-04-21 18:25 | 44.08634 | 13.07824 | 23866 ft | 329 kts | 324° |
| 2026-04-21 18:25 | 44.10628 | 13.06238 | 24387 ft | 332 kts | 324° |
| 2026-04-21 18:25 | 44.12639 | 13.04638 | 24876 ft | 335 kts | 324° |
| 2026-04-21 18:26 | 44.14672 | 13.03020 | 25368 ft | 338 kts | 324° |
| 2026-04-21 18:26 | 44.16725 | 13.01385 | 25849 ft | 341 kts | 324° |
| 2026-04-21 18:26 | 44.18793 | 12.99737 | 26329 ft | 344 kts | 324° |
| 2026-04-21 18:26 | 44.20880 | 12.98072 | 26793 ft | 347 kts | 324° |
| 2026-04-21 18:27 | 44.22988 | 12.96389 | 27260 ft | 351 kts | 324° |
| 2026-04-21 18:27 | 44.25113 | 12.94690 | 27705 ft | 354 kts | 324° |
| 2026-04-21 18:27 | 44.27253 | 12.92977 | 28169 ft | 357 kts | 324° |
| 2026-04-21 18:27 | 44.29416 | 12.91246 | 28621 ft | 360 kts | 324° |
| 2026-04-21 18:28 | 44.31593 | 12.89502 | 29040 ft | 363 kts | 324° |
| 2026-04-21 18:28 | 44.33788 | 12.87744 | 29468 ft | 365 kts | 324° |
| 2026-04-21 18:28 | 44.36008 | 12.85971 | 29886 ft | 368 kts | 324° |
| 2026-04-21 18:28 | 44.38243 | 12.84183 | 30254 ft | 371 kts | 324° |
| 2026-04-21 18:29 | 44.40491 | 12.82383 | 30586 ft | 374 kts | 324° |
| 2026-04-21 18:29 | 44.42755 | 12.80570 | 30932 ft | 376 kts | 324° |
| 2026-04-21 18:29 | 44.45036 | 12.78740 | 31271 ft | 379 kts | 324° |
| 2026-04-21 18:29 | 44.47332 | 12.76897 | 31598 ft | 382 kts | 324° |
| 2026-04-21 18:30 | 44.49639 | 12.75042 | 31963 ft | 384 kts | 324° |
| 2026-04-21 18:30 | 44.51960 | 12.73176 | 32303 ft | 386 kts | 324° |
| 2026-04-21 18:30 | 44.54300 | 12.71290 | 32609 ft | 389 kts | 324° |
| 2026-04-21 18:30 | 44.56649 | 12.69389 | 32916 ft | 392 kts | 324° |
| 2026-04-21 18:31 | 44.59014 | 12.67475 | 33284 ft | 393 kts | 324° |
| 2026-04-21 18:31 | 44.61376 | 12.65560 | 33705 ft | 392 kts | 324° |
| 2026-04-21 18:31 | 44.63741 | 12.63642 | 34099 ft | 392 kts | 324° |
| 2026-04-21 18:31 | 44.66106 | 12.61722 | 34426 ft | 393 kts | 324° |
| 2026-04-21 18:32 | 44.68474 | 12.59796 | 34736 ft | 394 kts | 324° |
| 2026-04-21 18:32 | 44.70845 | 12.57867 | 35069 ft | 395 kts | 324° |
| 2026-04-21 18:32 | 44.73223 | 12.55931 | 35383 ft | 395 kts | 325° |
| 2026-04-21 18:32 | 44.75600 | 12.53994 | 35696 ft | 395 kts | 325° |
| 2026-04-21 18:33 | 44.77984 | 12.52049 | 35994 ft | 396 kts | 325° |
| 2026-04-21 18:33 | 44.80370 | 12.50101 | 36293 ft | 397 kts | 325° |
| 2026-04-21 18:33 | 44.82759 | 12.48149 | 36580 ft | 398 kts | 325° |
| 2026-04-21 18:33 | 44.85151 | 12.46192 | 36862 ft | 398 kts | 325° |
| 2026-04-21 18:34 | 44.87550 | 12.44229 | 37133 ft | 399 kts | 325° |
| 2026-04-21 18:34 | 44.89950 | 12.42262 | 37404 ft | 399 kts | 325° |
| 2026-04-21 18:34 | 44.92355 | 12.40289 | 37672 ft | 401 kts | 325° |
| 2026-04-21 18:34 | 44.94764 | 12.38311 | 37897 ft | 402 kts | 325° |
| 2026-04-21 18:35 | 44.96370 | 12.36991 | 38000 ft | 403 kts | 325° |
| 2026-04-21 18:35 | 45.02006 | 12.32353 | 37990 ft | 402 kts | 325° |
| 2026-04-21 18:36 | 45.06843 | 12.28394 | 38000 ft | 402 kts | 329° |
| 2026-04-21 18:36 | 45.11937 | 12.25057 | 38039 ft | 404 kts | 330° |
| 2026-04-21 18:37 | 45.17027 | 12.21639 | 38010 ft | 406 kts | 329° |
| 2026-04-21 18:37 | 45.22128 | 12.18186 | 38004 ft | 406 kts | 329° |
| 2026-04-21 18:38 | 45.27223 | 12.14728 | 38008 ft | 406 kts | 329° |
| 2026-04-21 18:38 | 45.32316 | 12.11263 | 38008 ft | 406 kts | 329° |
| 2026-04-21 18:39 | 45.37412 | 12.07790 | 37995 ft | 407 kts | 330° |
| 2026-04-21 18:39 | 45.42506 | 12.04311 | 38004 ft | 405 kts | 329° |
| 2026-04-21 18:40 | 45.47596 | 12.00828 | 38010 ft | 405 kts | 329° |
| 2026-04-21 18:40 | 45.51821 | 11.97932 | 38006 ft | 405 kts | 330° |
| 2026-04-21 18:41 | 45.57774 | 11.93867 | 38023 ft | 406 kts | 330° |
| 2026-04-21 18:41 | 45.62854 | 11.90389 | 38019 ft | 406 kts | 330° |
| 2026-04-21 18:42 | 45.67918 | 11.86916 | 38017 ft | 406 kts | 330° |
| 2026-04-21 18:42 | 45.73043 | 11.83393 | 38012 ft | 406 kts | 330° |
| 2026-04-21 18:43 | 45.78126 | 11.79893 | 38022 ft | 406 kts | 330° |
| 2026-04-21 18:43 | 45.83218 | 11.76379 | 38054 ft | 406 kts | 330° |
| 2026-04-21 18:44 | 45.88267 | 11.72887 | 38007 ft | 405 kts | 330° |
| 2026-04-21 18:44 | 45.93360 | 11.69376 | 38029 ft | 407 kts | 331° |
| 2026-04-21 18:45 | 45.98495 | 11.65970 | 38076 ft | 407 kts | 331° |
| 2026-04-21 18:45 | 46.03641 | 11.62535 | 38040 ft | 408 kts | 331° |
| 2026-04-21 18:46 | 46.08793 | 11.59090 | 38037 ft | 408 kts | 331° |
| 2026-04-21 18:46 | 46.13943 | 11.55638 | 38042 ft | 408 kts | 331° |
| 2026-04-21 18:47 | 46.19093 | 11.52179 | 38027 ft | 408 kts | 331° |
| 2026-04-21 18:47 | 46.24240 | 11.48714 | 38042 ft | 408 kts | 331° |
| 2026-04-21 18:48 | 46.29379 | 11.45247 | 38028 ft | 408 kts | 331° |
| 2026-04-21 18:48 | 46.34519 | 11.41774 | 38030 ft | 408 kts | 331° |
| 2026-04-21 18:49 | 46.39670 | 11.38284 | 38023 ft | 408 kts | 331° |
| 2026-04-21 18:49 | 46.43952 | 11.35379 | 37992 ft | 410 kts | 332° |
| 2026-04-21 18:50 | 46.49993 | 11.31270 | 37983 ft | 410 kts | 331° |
| 2026-04-21 18:50 | 46.55146 | 11.27758 | 37999 ft | 409 kts | 331° |
| 2026-04-21 18:51 | 46.60303 | 11.24235 | 38021 ft | 409 kts | 331° |
| 2026-04-21 18:51 | 46.65457 | 11.20708 | 38031 ft | 411 kts | 331° |
| 2026-04-21 18:52 | 46.70643 | 11.17151 | 38024 ft | 412 kts | 331° |
| 2026-04-21 18:52 | 46.75789 | 11.13613 | 38051 ft | 413 kts | 331° |
| 2026-04-21 18:53 | 46.81041 | 11.09996 | 38068 ft | 415 kts | 331° |
| 2026-04-21 18:53 | 46.86221 | 11.06312 | 38059 ft | 413 kts | 324° |
| 2026-04-21 18:54 | 46.90842 | 11.01385 | 38065 ft | 412 kts | 321° |
| 2026-04-21 18:54 | 46.95427 | 10.96477 | 38103 ft | 411 kts | 321° |
| 2026-04-21 18:55 | 46.99291 | 10.92316 | 38089 ft | 412 kts | 321° |
| 2026-04-21 18:55 | 47.04652 | 10.86529 | 38114 ft | 412 kts | 321° |
| 2026-04-21 18:56 | 47.09260 | 10.81541 | 38114 ft | 412 kts | 321° |
| 2026-04-21 18:56 | 47.13884 | 10.76525 | 38123 ft | 415 kts | 322° |
| 2026-04-21 18:57 | 47.18514 | 10.71492 | 38101 ft | 414 kts | 321° |
| 2026-04-21 18:57 | 47.23144 | 10.66448 | 38126 ft | 415 kts | 322° |
| 2026-04-21 18:58 | 47.27768 | 10.61400 | 38131 ft | 414 kts | 322° |
| 2026-04-21 18:58 | 47.32392 | 10.56340 | 38145 ft | 414 kts | 322° |
| 2026-04-21 18:59 | 47.37030 | 10.51253 | 38120 ft | 417 kts | 322° |
| 2026-04-21 18:59 | 47.41638 | 10.46069 | 38136 ft | 417 kts | 320° |
| 2026-04-21 19:00 | 47.46206 | 10.40815 | 38130 ft | 415 kts | 321° |
| 2026-04-21 19:00 | 47.50760 | 10.35577 | 38142 ft | 415 kts | 321° |
| 2026-04-21 19:01 | 47.55307 | 10.30334 | 38164 ft | 415 kts | 321° |
| 2026-04-21 19:01 | 47.59868 | 10.25066 | 38141 ft | 417 kts | 321° |
| 2026-04-21 19:02 | 47.64441 | 10.19772 | 38145 ft | 417 kts | 321° |
| 2026-04-21 19:02 | 47.69004 | 10.14476 | 38143 ft | 417 kts | 321° |
| 2026-04-21 19:03 | 47.73567 | 10.09168 | 38136 ft | 416 kts | 321° |
| 2026-04-21 19:03 | 47.78113 | 10.03868 | 38137 ft | 415 kts | 321° |
| 2026-04-21 19:04 | 47.82667 | 9.98547 | 38150 ft | 417 kts | 321° |
| 2026-04-21 19:04 | 47.86461 | 9.94104 | 38149 ft | 418 kts | 321° |
| 2026-04-21 19:05 | 47.91024 | 9.88749 | 38147 ft | 417 kts | 321° |
| 2026-04-21 19:05 | 47.95577 | 9.83395 | 38151 ft | 417 kts | 321° |
| 2026-04-21 19:06 | 48.00135 | 9.78021 | 38143 ft | 417 kts | 321° |
| 2026-04-21 19:06 | 48.04688 | 9.72643 | 38156 ft | 418 kts | 321° |
| 2026-04-21 19:07 | 48.09212 | 9.67166 | 38152 ft | 418 kts | 315° |
| 2026-04-21 19:07 | 48.13324 | 9.61026 | 38152 ft | 418 kts | 315° |
| 2026-04-21 19:08 | 48.17498 | 9.54951 | 38162 ft | 418 kts | 315° |
| 2026-04-21 19:08 | 48.21681 | 9.48881 | 38161 ft | 419 kts | 315° |
| 2026-04-21 19:09 | 48.25861 | 9.42804 | 38156 ft | 418 kts | 315° |
| 2026-04-21 19:09 | 48.30040 | 9.36715 | 38248 ft | 420 kts | 315° |
| 2026-04-21 19:09 | 48.32133 | 9.33659 | 38508 ft | 421 kts | 316° |
| 2026-04-21 19:10 | 48.34231 | 9.30592 | 38753 ft | 422 kts | 315° |
| 2026-04-21 19:10 | 48.36334 | 9.27514 | 38970 ft | 422 kts | 315° |
| 2026-04-21 19:10 | 48.38435 | 9.24436 | 39167 ft | 422 kts | 315° |
| 2026-04-21 19:10 | 48.40542 | 9.21345 | 39366 ft | 422 kts | 315° |
| 2026-04-21 19:11 | 48.42646 | 9.18254 | 39544 ft | 423 kts | 315° |
| 2026-04-21 19:11 | 48.44745 | 9.15166 | 39726 ft | 423 kts | 315° |
| 2026-04-21 19:11 | 48.46822 | 9.12108 | 39904 ft | 423 kts | 315° |
| 2026-04-21 19:11 | 48.48953 | 9.08968 | 40065 ft | 423 kts | 315° |
| 2026-04-21 19:12 | 48.51054 | 9.05866 | 40185 ft | 423 kts | 315° |
| 2026-04-21 19:12 | 48.55256 | 8.99652 | 40182 ft | 421 kts | 315° |
| 2026-04-21 19:13 | 48.59415 | 8.93487 | 40183 ft | 422 kts | 315° |
| 2026-04-21 19:13 | 48.63596 | 8.87274 | 40187 ft | 422 kts | 315° |
| 2026-04-21 19:14 | 48.67769 | 8.81057 | 40187 ft | 422 kts | 315° |
| 2026-04-21 19:14 | 48.71945 | 8.74822 | 40189 ft | 422 kts | 315° |
| 2026-04-21 19:15 | 48.76144 | 8.68536 | 40195 ft | 421 kts | 315° |
| 2026-04-21 19:15 | 48.80314 | 8.62278 | 40192 ft | 423 kts | 315° |
| 2026-04-21 19:16 | 48.84486 | 8.56001 | 40189 ft | 423 kts | 315° |
| 2026-04-21 19:16 | 48.88665 | 8.49698 | 40188 ft | 423 kts | 315° |
| 2026-04-21 19:17 | 48.94940 | 8.40204 | 40189 ft | 426 kts | 315° |
| 2026-04-21 19:17 | 48.99134 | 8.33839 | 40189 ft | 426 kts | 315° |
| 2026-04-21 19:18 | 49.03294 | 8.27510 | 40192 ft | 427 kts | 315° |
| 2026-04-21 19:18 | 49.07517 | 8.21067 | 40194 ft | 427 kts | 315° |
| 2026-04-21 19:19 | 49.11685 | 8.14694 | 40194 ft | 427 kts | 315° |
| 2026-04-21 19:19 | 49.15878 | 8.08265 | 40197 ft | 427 kts | 315° |
| 2026-04-21 19:20 | 49.20058 | 8.01840 | 40198 ft | 427 kts | 315° |
| 2026-04-21 19:20 | 49.24246 | 7.95388 | 40186 ft | 427 kts | 315° |
| 2026-04-21 19:21 | 49.28424 | 7.88933 | 40187 ft | 428 kts | 315° |
| 2026-04-21 19:21 | 49.32617 | 7.82439 | 40178 ft | 428 kts | 315° |
| 2026-04-21 19:22 | 49.36805 | 7.75936 | 40168 ft | 428 kts | 315° |
| 2026-04-21 19:22 | 49.40982 | 7.69432 | 40165 ft | 428 kts | 315° |
| 2026-04-21 19:23 | 49.45165 | 7.62904 | 40164 ft | 428 kts | 315° |
| 2026-04-21 19:23 | 49.49340 | 7.56370 | 40162 ft | 428 kts | 315° |
| 2026-04-21 19:24 | 49.53507 | 7.49832 | 40204 ft | 429 kts | 315° |
| 2026-04-21 19:24 | 49.57676 | 7.43274 | 40205 ft | 429 kts | 315° |
| 2026-04-21 19:25 | 49.61849 | 7.36693 | 40202 ft | 429 kts | 315° |
| 2026-04-21 19:25 | 49.66014 | 7.30108 | 40210 ft | 429 kts | 315° |
| 2026-04-21 19:26 | 49.70180 | 7.23503 | 40204 ft | 429 kts | 315° |
| 2026-04-21 19:26 | 49.74334 | 7.16901 | 40203 ft | 429 kts | 315° |
| 2026-04-21 19:27 | 49.78487 | 7.10283 | 40209 ft | 429 kts | 315° |
| 2026-04-21 19:27 | 49.82644 | 7.03639 | 40205 ft | 430 kts | 315° |
| 2026-04-21 19:28 | 49.86798 | 6.96985 | 40213 ft | 430 kts | 315° |
| 2026-04-21 19:28 | 49.90943 | 6.90324 | 40201 ft | 430 kts | 315° |
| 2026-04-21 19:29 | 49.95094 | 6.83640 | 40201 ft | 430 kts | 315° |
| 2026-04-21 19:29 | 49.99234 | 6.76957 | 40201 ft | 429 kts | 315° |
| 2026-04-21 19:30 | 50.03375 | 6.70257 | 40202 ft | 430 kts | 315° |
| 2026-04-21 19:30 | 50.07511 | 6.63546 | 40201 ft | 430 kts | 315° |
| 2026-04-21 19:31 | 50.11649 | 6.56818 | 40203 ft | 430 kts | 315° |
| 2026-04-21 19:31 | 50.15782 | 6.50077 | 40219 ft | 430 kts | 315° |
| 2026-04-21 19:32 | 50.19689 | 6.43024 | 40203 ft | 430 kts | 304° |
| 2026-04-21 19:32 | 50.23069 | 6.35293 | 40218 ft | 431 kts | 306° |
| 2026-04-21 19:33 | 50.26451 | 6.27572 | 40228 ft | 431 kts | 306° |
| 2026-04-21 19:33 | 50.29837 | 6.19809 | 40236 ft | 432 kts | 306° |
| 2026-04-21 19:34 | 50.33216 | 6.12039 | 40233 ft | 432 kts | 306° |
| 2026-04-21 19:34 | 50.36595 | 6.04246 | 40241 ft | 432 kts | 306° |
| 2026-04-21 19:35 | 50.41622 | 5.92611 | 40239 ft | 432 kts | 306° |
| 2026-04-21 19:36 | 50.44981 | 5.84805 | 40243 ft | 432 kts | 305° |
| 2026-04-21 19:36 | 50.48334 | 5.76992 | 40245 ft | 432 kts | 305° |
| 2026-04-21 19:37 | 50.51679 | 5.69173 | 40254 ft | 432 kts | 305° |
| 2026-04-21 19:37 | 50.55029 | 5.61319 | 40253 ft | 433 kts | 305° |
| 2026-04-21 19:38 | 50.58380 | 5.53441 | 40252 ft | 433 kts | 305° |
| 2026-04-21 19:38 | 50.61156 | 5.46895 | 40256 ft | 433 kts | 305° |
| 2026-04-21 19:39 | 50.65052 | 5.37682 | 40264 ft | 433 kts | 305° |
| 2026-04-21 19:39 | 50.68379 | 5.29786 | 40265 ft | 433 kts | 305° |
| 2026-04-21 19:40 | 50.71702 | 5.21878 | 40265 ft | 433 kts | 305° |
| 2026-04-21 19:40 | 50.75020 | 5.13958 | 40246 ft | 433 kts | 305° |
| 2026-04-21 19:41 | 50.78330 | 5.06033 | 40266 ft | 433 kts | 305° |
| 2026-04-21 19:41 | 50.81637 | 4.98089 | 40269 ft | 433 kts | 305° |
| 2026-04-21 19:42 | 50.84947 | 4.90117 | 40270 ft | 433 kts | 305° |
| 2026-04-21 19:42 | 50.88248 | 4.82139 | 40275 ft | 433 kts | 304° |
| 2026-04-21 19:43 | 50.91550 | 4.74135 | 40274 ft | 433 kts | 304° |
| 2026-04-21 19:43 | 50.94836 | 4.66148 | 40256 ft | 433 kts | 304° |
| 2026-04-21 19:44 | 50.98123 | 4.58131 | 40269 ft | 433 kts | 304° |
| 2026-04-21 19:44 | 51.01401 | 4.50112 | 40270 ft | 433 kts | 304° |
| 2026-04-21 19:45 | 51.04675 | 4.42079 | 40295 ft | 433 kts | 304° |
| 2026-04-21 19:45 | 51.07913 | 4.34106 | 40289 ft | 433 kts | 304° |
| 2026-04-21 19:46 | 51.11178 | 4.26047 | 40289 ft | 433 kts | 304° |
| 2026-04-21 19:46 | 51.14432 | 4.17985 | 40289 ft | 433 kts | 304° |
| 2026-04-21 19:47 | 51.17684 | 4.09905 | 40283 ft | 433 kts | 304° |
| 2026-04-21 19:47 | 51.20924 | 4.01831 | 40274 ft | 433 kts | 304° |
| 2026-04-21 19:48 | 51.24164 | 3.93731 | 40273 ft | 433 kts | 304° |
| 2026-04-21 19:48 | 51.27402 | 3.85620 | 40274 ft | 433 kts | 304° |
| 2026-04-21 19:49 | 51.30110 | 3.78814 | 40234 ft | 435 kts | 304° |
| 2026-04-21 19:49 | 51.31715 | 3.74773 | 40073 ft | 435 kts | 304° |
| 2026-04-21 19:49 | 51.33322 | 3.70723 | 39844 ft | 432 kts | 304° |
| 2026-04-21 19:49 | 51.34880 | 3.66628 | 39622 ft | 429 kts | 300° |
| 2026-04-21 19:50 | 51.36132 | 3.62312 | 39393 ft | 428 kts | 291° |
| 2026-04-21 19:50 | 51.36858 | 3.57725 | 39001 ft | 424 kts | 284° |
| 2026-04-21 19:50 | 51.37565 | 3.53153 | 38224 ft | 425 kts | 287° |
| 2026-04-21 19:50 | 51.38123 | 3.48475 | 37421 ft | 429 kts | 282° |
| 2026-04-21 19:51 | 51.38902 | 3.43911 | 36830 ft | 423 kts | 293° |
| 2026-04-21 19:51 | 51.39823 | 3.39474 | 36427 ft | 418 kts | 289° |
| 2026-04-21 19:51 | 51.40629 | 3.35084 | 36007 ft | 412 kts | 289° |
| 2026-04-21 19:51 | 51.41376 | 3.30943 | 35555 ft | 409 kts | 289° |
| 2026-04-21 19:52 | 51.42086 | 3.26904 | 35042 ft | 408 kts | 288° |
| 2026-04-21 19:52 | 51.42845 | 3.22533 | 34543 ft | 405 kts | 288° |
| 2026-04-21 19:52 | 51.43594 | 3.18197 | 34042 ft | 402 kts | 289° |
| 2026-04-21 19:52 | 51.44333 | 3.13901 | 33498 ft | 399 kts | 288° |
| 2026-04-21 19:53 | 51.45059 | 3.09612 | 32972 ft | 396 kts | 288° |
| 2026-04-21 19:53 | 51.45762 | 3.05359 | 32486 ft | 393 kts | 288° |
| 2026-04-21 19:53 | 51.46458 | 3.01160 | 32076 ft | 388 kts | 288° |
| 2026-04-21 19:53 | 51.47144 | 2.97011 | 31667 ft | 383 kts | 288° |
| 2026-04-21 19:54 | 51.47822 | 2.92902 | 31231 ft | 379 kts | 288° |
| 2026-04-21 19:54 | 51.48493 | 2.88830 | 30799 ft | 377 kts | 288° |
| 2026-04-21 19:54 | 51.49161 | 2.84783 | 30334 ft | 373 kts | 289° |
| 2026-04-21 19:54 | 51.49819 | 2.80791 | 29866 ft | 369 kts | 288° |
| 2026-04-21 19:55 | 51.50462 | 2.76827 | 29450 ft | 364 kts | 288° |
| 2026-04-21 19:55 | 51.51096 | 2.72933 | 29052 ft | 359 kts | 288° |
| 2026-04-21 19:55 | 51.51722 | 2.69078 | 28653 ft | 355 kts | 288° |
| 2026-04-21 19:55 | 51.52341 | 2.65267 | 28256 ft | 351 kts | 288° |
| 2026-04-21 19:56 | 51.52951 | 2.61500 | 27860 ft | 347 kts | 288° |
| 2026-04-21 19:56 | 51.53547 | 2.57811 | 27500 ft | 344 kts | 288° |
| 2026-04-21 19:56 | 51.54146 | 2.54100 | 27125 ft | 341 kts | 288° |
| 2026-04-21 19:56 | 51.54738 | 2.50477 | 26751 ft | 338 kts | 290° |
| 2026-04-21 19:57 | 51.55522 | 2.46963 | 26384 ft | 334 kts | 294° |
| 2026-04-21 19:57 | 51.56324 | 2.43470 | 26001 ft | 333 kts | 293° |
| 2026-04-21 19:57 | 51.57098 | 2.39992 | 25702 ft | 328 kts | 294° |
| 2026-04-21 19:57 | 51.57866 | 2.36568 | 25407 ft | 324 kts | 293° |
| 2026-04-21 19:58 | 51.58648 | 2.33183 | 25038 ft | 322 kts | 293° |
| 2026-04-21 19:58 | 51.59415 | 2.29816 | 24757 ft | 319 kts | 293° |
| 2026-04-21 19:58 | 51.60179 | 2.26455 | 24465 ft | 323 kts | 294° |
| 2026-04-21 19:58 | 51.60954 | 2.23042 | 24146 ft | 327 kts | 293° |
| 2026-04-21 19:59 | 51.61742 | 2.19581 | 23791 ft | 332 kts | 295° |
| 2026-04-21 19:59 | 51.62547 | 2.16098 | 23369 ft | 333 kts | 294° |
| 2026-04-21 19:59 | 51.63478 | 2.12718 | 22993 ft | 328 kts | 308° |
| 2026-04-21 19:59 | 51.65041 | 2.10152 | 22634 ft | 317 kts | 330° |
| 2026-04-21 20:00 | 51.66931 | 2.08441 | 22408 ft | 308 kts | 338° |
| 2026-04-21 20:00 | 51.68826 | 2.06765 | 22097 ft | 315 kts | 332° |
| 2026-04-21 20:00 | 51.70734 | 2.04989 | 21662 ft | 316 kts | 335° |
| 2026-04-21 20:00 | 51.72658 | 2.03298 | 21305 ft | 314 kts | 335° |
| 2026-04-21 20:01 | 51.74567 | 2.01617 | 20929 ft | 312 kts | 336° |
| 2026-04-21 20:01 | 51.76473 | 1.99965 | 20581 ft | 310 kts | 335° |
| 2026-04-21 20:01 | 51.78386 | 1.98317 | 20202 ft | 311 kts | 335° |
| 2026-04-21 20:01 | 51.80292 | 1.96678 | 19845 ft | 310 kts | 335° |
| 2026-04-21 20:02 | 51.82209 | 1.95043 | 19475 ft | 314 kts | 336° |
| 2026-04-21 20:02 | 51.84139 | 1.93419 | 19118 ft | 313 kts | 336° |
| 2026-04-21 20:02 | 51.86062 | 1.91756 | 18771 ft | 312 kts | 337° |
| 2026-04-21 20:02 | 51.87978 | 1.90104 | 18382 ft | 312 kts | 335° |
| 2026-04-21 20:03 | 51.89703 | 1.87936 | 17928 ft | 320 kts | 313° |
| 2026-04-21 20:03 | 51.90912 | 1.84920 | 17608 ft | 319 kts | 301° |
| 2026-04-21 20:03 | 51.91984 | 1.81800 | 17285 ft | 316 kts | 301° |
| 2026-04-21 20:03 | 51.93028 | 1.78682 | 16950 ft | 314 kts | 301° |
| 2026-04-21 20:04 | 51.94060 | 1.75577 | 16613 ft | 312 kts | 301° |
| 2026-04-21 20:04 | 51.95083 | 1.72482 | 16277 ft | 311 kts | 301° |
| 2026-04-21 20:04 | 51.96101 | 1.69392 | 15929 ft | 311 kts | 301° |
| 2026-04-21 20:04 | 51.97128 | 1.66273 | 15570 ft | 315 kts | 301° |
| 2026-04-21 20:05 | 51.98164 | 1.63118 | 15212 ft | 318 kts | 301° |
| 2026-04-21 20:05 | 51.99200 | 1.59955 | 14865 ft | 319 kts | 301° |
| 2026-04-21 20:05 | 52.00244 | 1.56773 | 14509 ft | 319 kts | 300° |
| 2026-04-21 20:05 | 52.01281 | 1.53599 | 14157 ft | 318 kts | 301° |
| 2026-04-21 20:06 | 52.02319 | 1.50421 | 13684 ft | 320 kts | 301° |
| 2026-04-21 20:06 | 52.03364 | 1.47225 | 13277 ft | 320 kts | 301° |
| 2026-04-21 20:06 | 52.04398 | 1.44045 | 12968 ft | 316 kts | 300° |
| 2026-04-21 20:06 | 52.05421 | 1.40906 | 12694 ft | 312 kts | 300° |
| 2026-04-21 20:07 | 52.06465 | 1.37859 | 12415 ft | 306 kts | 308° |
| 2026-04-21 20:07 | 52.07843 | 1.35298 | 12185 ft | 298 kts | 312° |
| 2026-04-21 20:07 | 52.08980 | 1.32512 | 12023 ft | 295 kts | 301° |
| 2026-04-21 20:07 | 52.10001 | 1.29613 | 11897 ft | 296 kts | 301° |
| 2026-04-21 20:08 | 52.10985 | 1.26670 | 11740 ft | 296 kts | 300° |
| 2026-04-21 20:08 | 52.11696 | 1.23542 | 11564 ft | 297 kts | 282° |
| 2026-04-21 20:08 | 52.11817 | 1.20210 | 11399 ft | 296 kts | 262° |
| 2026-04-21 20:08 | 52.11406 | 1.16933 | 11255 ft | 296 kts | 255° |
| 2026-04-21 20:09 | 52.10888 | 1.13697 | 11100 ft | 295 kts | 250° |
| 2026-04-21 20:09 | 52.10263 | 1.10523 | 10935 ft | 295 kts | 251° |
| 2026-04-21 20:09 | 52.09681 | 1.07379 | 10775 ft | 294 kts | 252° |
| 2026-04-21 20:09 | 52.09110 | 1.04145 | 10604 ft | 293 kts | 253° |
| 2026-04-21 20:10 | 52.08566 | 1.00999 | 10443 ft | 293 kts | 253° |
| 2026-04-21 20:10 | 52.08022 | 0.97811 | 10277 ft | 292 kts | 253° |
| 2026-04-21 20:10 | 52.07483 | 0.94624 | 10111 ft | 292 kts | 253° |
| 2026-04-21 20:10 | 52.06948 | 0.91452 | 9948 ft | 291 kts | 253° |
| 2026-04-21 20:11 | 52.06414 | 0.88278 | 9783 ft | 290 kts | 253° |
| 2026-04-21 20:11 | 52.05883 | 0.85127 | 9620 ft | 290 kts | 253° |
| 2026-04-21 20:11 | 52.05350 | 0.81971 | 9456 ft | 289 kts | 253° |
| 2026-04-21 20:11 | 52.04819 | 0.78825 | 9300 ft | 288 kts | 253° |
| 2026-04-21 20:12 | 52.04288 | 0.75686 | 9142 ft | 288 kts | 253° |
| 2026-04-21 20:12 | 52.03757 | 0.72555 | 8984 ft | 288 kts | 253° |
| 2026-04-21 20:12 | 52.03227 | 0.69432 | 8816 ft | 285 kts | 253° |
| 2026-04-21 20:12 | 52.02706 | 0.66375 | 8645 ft | 278 kts | 253° |
| 2026-04-21 20:13 | 52.02198 | 0.63391 | 8492 ft | 270 kts | 253° |
| 2026-04-21 20:13 | 52.01704 | 0.60477 | 8391 ft | 267 kts | 255° |
| 2026-04-21 20:13 | 52.01432 | 0.57484 | 8089 ft | 271 kts | 265° |
| 2026-04-21 20:13 | 52.01290 | 0.54397 | 7606 ft | 279 kts | 265° |
| 2026-04-21 20:14 | 52.01134 | 0.51214 | 7106 ft | 286 kts | 265° |
| 2026-04-21 20:14 | 52.00967 | 0.47962 | 6620 ft | 292 kts | 265° |
| 2026-04-21 20:14 | 52.00817 | 0.44683 | 6324 ft | 290 kts | 266° |
| 2026-04-21 20:14 | 52.00690 | 0.41507 | 6354 ft | 275 kts | 266° |
| 2026-04-21 20:15 | 52.00567 | 0.38485 | 6338 ft | 263 kts | 266° |
| 2026-04-21 20:15 | 52.00445 | 0.35539 | 6356 ft | 261 kts | 266° |
| 2026-04-21 20:15 | 52.00324 | 0.32630 | 6177 ft | 257 kts | 266° |
| 2026-04-21 20:15 | 52.00195 | 0.29748 | 6002 ft | 256 kts | 263° |
| 2026-04-21 20:16 | 51.99587 | 0.27065 | 5975 ft | 253 kts | 230° |
| 2026-04-21 20:16 | 51.98400 | 0.24976 | 6011 ft | 253 kts | 221° |
| 2026-04-21 20:16 | 51.97165 | 0.22967 | 5975 ft | 248 kts | 221° |
| 2026-04-21 20:16 | 51.95934 | 0.21060 | 5781 ft | 243 kts | 219° |
| 2026-04-21 20:17 | 51.94699 | 0.19185 | 5457 ft | 245 kts | 219° |
| 2026-04-21 20:17 | 51.93463 | 0.17312 | 5092 ft | 248 kts | 219° |
| 2026-04-21 20:17 | 51.92196 | 0.15397 | 4737 ft | 251 kts | 219° |
| 2026-04-21 20:17 | 51.90897 | 0.13437 | 4375 ft | 253 kts | 219° |
| 2026-04-21 20:18 | 51.90042 | 0.12149 | 4143 ft | 254 kts | 219° |
| 2026-04-21 20:18 | 51.88318 | 0.09553 | 3678 ft | 257 kts | 218° |
| 2026-04-21 20:18 | 51.87006 | 0.07578 | 3336 ft | 258 kts | 218° |
| 2026-04-21 20:18 | 51.85690 | 0.05590 | 3013 ft | 260 kts | 219° |
| 2026-04-21 20:19 | 51.84402 | 0.03611 | 2841 ft | 247 kts | 219° |
| 2026-04-21 20:19 | 51.83199 | 0.01765 | 2740 ft | 230 kts | 218° |
| 2026-04-21 20:19 | 51.82077 | 0.00044 | 2684 ft | 214 kts | 218° |
| 2026-04-21 20:19 | 51.81024 | -0.01547 | 2669 ft | 200 kts | 214° |
| 2026-04-21 20:20 | 51.79874 | -0.02546 | 2528 ft | 178 kts | 181° |
| 2026-04-21 20:20 | 51.78734 | -0.02410 | 2474 ft | 159 kts | 150° |
| 2026-04-21 20:20 | 51.77708 | -0.01648 | 2566 ft | 168 kts | 146° |
| 2026-04-21 20:20 | 51.76696 | -0.00717 | 2564 ft | 167 kts | 130° |
| 2026-04-21 20:21 | 51.75946 | 0.00668 | 2481 ft | 162 kts | 115° |
| 2026-04-21 20:21 | 51.75673 | 0.02364 | 2463 ft | 156 kts | 84° |
| 2026-04-21 20:21 | 51.76042 | 0.03995 | 2494 ft | 157 kts | 63° |
| 2026-04-21 20:21 | 51.76669 | 0.05460 | 2526 ft | 160 kts | 54° |
| 2026-04-21 20:22 | 51.77419 | 0.06807 | 2516 ft | 162 kts | 50° |
| 2026-04-21 20:22 | 51.79048 | 0.09334 | 2492 ft | 162 kts | 47° |
| 2026-04-21 20:22 | 51.79877 | 0.10574 | 2423 ft | 162 kts | 48° |
| 2026-04-21 20:23 | 51.80685 | 0.11782 | 2250 ft | 155 kts | 48° |
| 2026-04-21 20:23 | 51.81451 | 0.12926 | 2060 ft | 144 kts | 48° |
| 2026-04-21 20:23 | 51.82163 | 0.13992 | 1899 ft | 138 kts | 48° |
| 2026-04-21 20:23 | 51.82873 | 0.15056 | 1749 ft | 139 kts | 48° |
| 2026-04-21 20:24 | 51.83545 | 0.16060 | 1560 ft | 125 kts | 48° |
| 2026-04-21 20:24 | 51.84168 | 0.16994 | 1371 ft | 120 kts | 47° |
| 2026-04-21 20:24 | 51.84782 | 0.17917 | 1186 ft | 121 kts | 46° |
| 2026-04-21 20:24 | 51.85407 | 0.18855 | 1010 ft | 124 kts | 45° |
| 2026-04-21 20:25 | 51.86038 | 0.19825 | 849 ft | 126 kts | 44° |
| 2026-04-21 20:25 | 51.86695 | 0.20781 | 673 ft | 129 kts | 43° |
| 2026-04-21 20:25 | 51.87347 | 0.21747 | 476 ft | 128 kts | 44° |
| 2026-04-21 20:25 | 51.87982 | 0.22704 | 336 ft | 117 kts | 43° |
| 2026-04-21 20:26 | 51.88470 | 0.23437 | 350 ft | 63 kts | 43° |
| 2026-04-21 20:26 | 51.88764 | 0.23875 | 344 ft | 57 kts | 43° |
| 2026-04-21 20:26 | 51.88995 | 0.24226 | 357 ft | 30 kts | 48° |
| 2026-04-21 20:26 | 51.89083 | 0.24471 | 355 ft | 24 kts | 68° |
| 2026-04-21 20:27 | 51.89129 | 0.24654 | 357 ft | 11 kts | 68° |
| 2026-04-21 20:27 | 51.89160 | 0.24778 | 351 ft | 13 kts | 68° |
| 2026-04-21 20:27 | 51.89157 | 0.24883 | 359 ft | 7 kts | 110° |
| 2026-04-21 20:27 | 51.89168 | 0.24966 | 357 ft | 11 kts | 52° |
| 2026-04-21 20:28 | 51.89231 | 0.25088 | 357 ft | 16 kts | 57° |
| 2026-04-21 20:28 | 51.89304 | 0.25241 | 359 ft | 18 kts | 42° |
| 2026-04-21 20:28 | 51.89390 | 0.25367 | 355 ft | 13 kts | 42° |
| 2026-04-21 20:28 | 51.89412 | 0.25478 | 355 ft | 11 kts | 111° |
| 2026-04-21 20:29 | 51.89352 | 0.25564 | 356 ft | 12 kts | 148° |
| 2026-04-21 20:29 | 51.89282 | 0.25669 | 355 ft | 13 kts | 133° |
| 2026-04-21 20:29 | 51.89229 | 0.25762 | 358 ft | 12 kts | 133° |
| 2026-04-21 20:29 | 51.89194 | 0.25824 | 361 ft | 1 kts | 132° |
| 2026-04-21 20:30 | 51.89181 | 0.25838 | 358 ft | 2 kts | 168° |
| 2026-04-21 20:30 | 51.89163 | 0.25824 | 360 ft | 4 kts | 217° |
| 2026-04-21 20:30 | 51.89152 | 0.25805 | 357 ft | 2 kts | 229° |
| 2026-04-21 20:30 | 51.89148 | 0.25796 | 356 ft | 0 kts | 230° |